createdAt,value
2022-11-15T00:01:30.787Z,0
2022-11-15T00:07:58.045Z,0
2022-11-15T00:14:13.734Z,0
2022-11-15T00:20:33.801Z,0
2022-11-15T00:26:56.739Z,0
2022-11-15T00:33:16.770Z,0
2022-11-15T00:39:39.753Z,0
2022-11-15T00:45:59.767Z,0
2022-11-15T00:52:22.777Z,0
2022-11-15T00:58:42.775Z,0
2022-11-15T01:05:05.787Z,0
2022-11-15T01:11:25.731Z,0
2022-11-15T01:17:48.808Z,0
2022-11-15T01:24:08.751Z,0
2022-11-15T01:30:31.774Z,0
2022-11-15T01:36:51.787Z,0
2022-11-15T01:43:14.728Z,0
2022-11-15T01:49:34.827Z,0
2022-11-15T01:55:57.755Z,0
2022-11-15T02:02:17.739Z,0
2022-11-15T02:08:40.781Z,0
2022-11-15T02:15:00.776Z,0
2022-11-15T02:21:23.767Z,0
2022-11-15T02:27:43.756Z,0
2022-11-15T02:34:06.810Z,0
2022-11-15T02:40:26.739Z,0
2022-11-15T02:46:49.763Z,0
2022-11-15T02:53:09.842Z,0
2022-11-15T02:59:32.769Z,0
2022-11-15T03:05:52.780Z,0
2022-11-15T03:12:15.748Z,0
2022-11-15T03:18:35.728Z,0
2022-11-15T03:24:58.744Z,0
2022-11-15T03:31:18.746Z,0
2022-11-15T03:37:41.786Z,0
2022-11-15T03:44:01.741Z,0
2022-11-15T03:50:24.781Z,0
2022-11-15T03:56:44.740Z,0
2022-11-15T04:03:07.724Z,0
2022-11-15T04:09:27.811Z,0
2022-11-15T04:15:50.729Z,0
2022-11-15T04:22:10.793Z,0
2022-11-15T04:28:33.774Z,0
2022-11-15T04:34:53.706Z,0
2022-11-15T04:58:18.784Z,0
2022-11-15T05:04:41.723Z,0
2022-11-15T05:11:01.754Z,0
2022-11-15T05:17:24.772Z,0
2022-11-15T05:23:44.740Z,0
2022-11-15T05:30:07.798Z,0
2022-11-15T05:36:27.776Z,0
2022-11-15T05:42:50.792Z,0
2022-11-15T05:49:10.734Z,0
2022-11-15T05:55:33.895Z,0
2022-11-15T06:01:53.816Z,0
2022-11-15T06:08:16.747Z,0
2022-11-15T06:14:36.774Z,0
2022-11-15T06:20:59.761Z,0
2022-11-15T06:27:19.748Z,0
2022-11-15T06:33:42.785Z,0
2022-11-15T06:40:02.720Z,0
2022-11-15T06:46:25.799Z,0
2022-11-15T06:52:45.752Z,0
2022-11-15T06:59:08.759Z,0
2022-11-15T07:05:28.788Z,0
2022-11-15T07:11:51.765Z,0
2022-11-15T07:18:11.833Z,5.62
2022-11-15T07:24:34.754Z,5.62
2022-11-15T07:30:54.774Z,5.62
2022-11-15T07:37:17.824Z,11.25
2022-11-15T07:43:37.761Z,11.25
2022-11-15T07:50:00.839Z,16.88
2022-11-15T07:56:20.748Z,16.88
2022-11-15T08:02:43.883Z,16.88
2022-11-15T08:09:03.800Z,16.88
2022-11-15T08:15:26.738Z,22.5
2022-11-15T08:21:46.773Z,22.5
2022-11-15T08:28:09.784Z,22.5
2022-11-15T08:34:29.737Z,22.5
2022-11-15T08:40:53.069Z,22.5
2022-11-15T08:47:12.827Z,28.12
2022-11-15T08:53:35.789Z,28.12
2022-11-15T08:59:55.760Z,33.75
2022-11-15T09:06:19.559Z,39.38
2022-11-15T09:12:39.765Z,39.38
2022-11-15T09:19:04.570Z,39.38
2022-11-15T09:25:22.811Z,45
2022-11-15T09:31:45.929Z,45
2022-11-15T09:38:06.003Z,56.25
2022-11-15T09:44:29.043Z,56.25
2022-11-15T09:50:48.778Z,50.62
2022-11-15T09:57:15.871Z,56.25
2022-11-15T10:19:24.300Z,67.5
2022-11-15T10:25:43.763Z,67.5
2022-11-15T10:32:06.775Z,61.88
2022-11-15T10:38:26.757Z,67.5
2022-11-15T10:44:49.736Z,67.5
2022-11-15T10:51:09.757Z,78.75
2022-11-15T10:57:32.761Z,67.5
2022-11-15T11:03:52.780Z,73.12
2022-11-15T11:10:36.525Z,78.75
2022-11-15T11:16:38.748Z,78.75
2022-11-15T11:22:58.769Z,33.75
2022-11-15T11:29:18.741Z,45
2022-11-15T11:35:41.821Z,39.38
2022-11-15T11:42:01.979Z,45
2022-11-15T11:48:24.750Z,56.25
2022-11-15T11:54:44.790Z,90
2022-11-15T12:01:12.499Z,56.25
2022-11-15T12:07:27.858Z,45
2022-11-15T12:13:50.772Z,45
2022-11-15T12:20:10.800Z,45
2022-11-15T12:26:33.738Z,50.62
2022-11-15T12:32:53.753Z,50.62
2022-11-15T12:39:16.758Z,45
2022-11-15T12:45:36.739Z,45
2022-11-15T12:51:59.817Z,45
2022-11-15T12:58:19.738Z,45
2022-11-15T13:04:42.735Z,45
2022-11-15T13:11:02.801Z,39.38
2022-11-15T13:17:25.724Z,67.5
2022-11-15T13:23:45.775Z,45
2022-11-15T13:30:08.806Z,39.38
2022-11-15T13:36:28.766Z,28.12
2022-11-15T13:42:51.775Z,28.12
2022-11-15T13:49:11.760Z,22.5
2022-11-15T13:55:34.809Z,16.88
2022-11-15T14:01:54.752Z,11.25
2022-11-15T14:08:17.793Z,16.88
2022-11-15T14:14:37.776Z,16.88
2022-11-15T14:21:00.731Z,16.88
2022-11-15T14:27:20.788Z,16.88
2022-11-15T14:33:43.725Z,16.88
2022-11-15T14:40:03.771Z,11.25
2022-11-15T14:46:26.784Z,11.25
2022-11-15T14:52:46.734Z,11.25
2022-11-15T14:59:09.764Z,11.25
2022-11-15T15:05:29.813Z,5.62
2022-11-15T15:11:52.791Z,5.62
2022-11-15T15:18:12.753Z,0
2022-11-15T15:24:35.793Z,0
2022-11-15T15:48:18.686Z,0
2022-11-15T15:54:38.723Z,0
2022-11-15T16:01:01.846Z,0
2022-11-15T16:07:21.833Z,0
2022-11-15T16:13:44.754Z,0
2022-11-15T16:20:04.781Z,0
2022-11-15T16:26:27.756Z,0
2022-11-15T16:32:47.791Z,0
2022-11-15T16:39:10.774Z,0
2022-11-15T16:45:30.772Z,0
2022-11-15T16:51:53.775Z,0
2022-11-15T16:58:13.742Z,0
2022-11-15T17:04:36.807Z,0
2022-11-15T17:10:56.764Z,0
2022-11-15T17:17:19.722Z,0
2022-11-15T17:23:39.818Z,0
2022-11-15T17:30:02.767Z,0
2022-11-15T17:36:22.982Z,0
2022-11-15T17:42:45.782Z,0
2022-11-15T17:49:05.748Z,0
2022-11-15T17:55:28.793Z,0
2022-11-15T18:01:48.799Z,0
2022-11-15T18:08:15.398Z,0
2022-11-15T18:14:31.731Z,0
2022-11-15T18:20:54.777Z,0
2022-11-15T18:27:14.750Z,0
2022-11-15T18:33:37.744Z,0
2022-11-15T18:39:57.814Z,0
2022-11-15T18:46:20.744Z,0
2022-11-15T18:52:40.749Z,0
2022-11-15T18:59:03.960Z,0
2022-11-15T19:05:23.754Z,0
2022-11-15T19:11:46.811Z,0
2022-11-15T19:18:06.780Z,0
2022-11-15T19:24:29.842Z,0
2022-11-15T19:30:49.801Z,0
2022-11-15T19:37:12.789Z,0
2022-11-15T19:43:33.049Z,0
2022-11-15T19:49:55.750Z,0
2022-11-15T19:56:15.832Z,0
2022-11-15T20:02:38.793Z,0
2022-11-15T20:08:58.738Z,0
2022-11-15T20:15:21.860Z,0
2022-11-15T20:21:41.840Z,0
2022-11-15T20:28:04.777Z,0
2022-11-15T20:34:24.825Z,0
2022-11-15T20:40:47.850Z,0
2022-11-15T20:57:12.721Z,0
2022-11-15T21:03:32.727Z,0
2022-11-15T21:09:55.785Z,0
2022-11-15T21:16:15.856Z,0
2022-11-15T21:22:38.792Z,0
2022-11-15T21:28:59.062Z,0
2022-11-15T21:35:21.758Z,0
2022-11-15T21:41:41.766Z,0
2022-11-15T21:48:04.774Z,0
2022-11-15T21:54:24.801Z,0
2022-11-15T22:00:47.806Z,0
2022-11-15T22:07:07.875Z,0
2022-11-15T22:13:30.763Z,0
2022-11-15T22:19:52.737Z,0
2022-11-15T22:26:13.747Z,0
2022-11-15T22:32:33.805Z,0
2022-11-15T22:38:56.787Z,0
2022-11-15T22:45:16.752Z,0
2022-11-15T22:51:39.835Z,0
2022-11-15T22:57:59.734Z,0
2022-11-15T23:20:56.773Z,0
2022-11-15T23:27:16.719Z,0
2022-11-15T23:33:39.804Z,0
2022-11-15T23:39:59.784Z,0
2022-11-15T23:46:22.804Z,0
2022-11-15T23:52:42.750Z,0
2022-11-15T23:59:05.789Z,0
